createdAt,value
2017-09-27T00:04:20.977Z,9.55
2017-09-27T00:13:57.863Z,9.35
2017-09-27T00:23:35.018Z,9.55
2017-09-27T00:33:11.638Z,9.55
2017-09-27T00:42:49.661Z,9.74
2017-09-27T00:52:26.630Z,9.94
2017-09-27T01:02:07.861Z,9.94
2017-09-27T01:11:38.393Z,10.13
2017-09-27T01:21:16.330Z,10.23
2017-09-27T01:30:52.893Z,10.04
2017-09-27T01:40:29.780Z,10.13
2017-09-27T01:50:06.960Z,10.23
2017-09-27T01:59:43.489Z,10.43
2017-09-27T02:09:21.560Z,10.53
2017-09-27T02:18:57.941Z,10.62
2017-09-27T02:28:35.900Z,10.62
2017-09-27T02:38:12.599Z,10.53
2017-09-27T02:47:49.639Z,10.53
2017-09-27T02:57:26.722Z,10.43
2017-09-27T03:07:03.065Z,10.43
2017-09-27T03:16:39.522Z,10.23
2017-09-27T03:26:16.436Z,10.04
2017-09-27T03:35:53.026Z,9.94
2017-09-27T03:45:29.737Z,9.64
2017-09-27T03:55:06.347Z,9.65
2017-09-27T04:04:43.209Z,9.65
2017-09-27T04:14:20.271Z,9.65
2017-09-27T04:23:57.575Z,9.74
2017-09-27T04:33:34.896Z,9.74
2017-09-27T04:43:11.634Z,9.94
2017-09-27T04:52:48.711Z,10.14
2017-09-27T05:02:25.934Z,10.23
2017-09-27T05:12:03.095Z,10.53
2017-09-27T05:21:40.174Z,10.53
2017-09-27T05:31:17.725Z,10.62
2017-09-27T05:40:55.372Z,10.72
2017-09-27T05:50:33.302Z,11.02
2017-09-27T06:00:10.624Z,11.11
2017-09-27T06:09:47.755Z,11.31
2017-09-27T06:19:25.023Z,11.41
2017-09-27T06:29:02.115Z,11.41
2017-09-27T06:38:38.630Z,11.50
2017-09-27T06:48:16.795Z,11.60
2017-09-27T06:57:54.276Z,11.80
2017-09-27T07:07:31.327Z,11.89
2017-09-27T07:17:09.618Z,12.19
2017-09-27T07:26:46.671Z,12.48
2017-09-27T07:36:24.838Z,12.48
2017-09-27T07:46:01.865Z,12.78
2017-09-27T07:55:38.466Z,12.78
2017-09-27T08:05:16.717Z,12.87
2017-09-27T08:14:54.184Z,13.07
2017-09-27T08:24:31.950Z,13.56
2017-09-27T08:34:10.514Z,13.65
2017-09-27T08:43:48.078Z,14.05
2017-09-27T08:53:26.693Z,14.15
2017-09-27T09:03:03.458Z,14.05
2017-09-27T09:12:40.689Z,14.05
2017-09-27T09:22:17.347Z,14.24
2017-09-27T09:31:55.096Z,14.44
2017-09-27T09:41:33.977Z,15.12
2017-09-27T09:51:12.255Z,15.61
2017-09-27T10:00:50.893Z,16.20
2017-09-27T10:10:28.448Z,16.10
2017-09-27T10:20:05.475Z,16.00
2017-09-27T10:29:43.590Z,16.59
2017-09-27T10:39:21.644Z,16.49
2017-09-27T10:48:58.019Z,16.39
2017-09-27T10:58:37.006Z,16.88
2017-09-27T11:08:13.972Z,16.78
2017-09-27T11:17:50.659Z,16.69
2017-09-27T11:27:28.997Z,17.08
2017-09-27T11:37:06.275Z,17.08
2017-09-27T11:46:44.762Z,17.47
2017-09-27T11:56:23.298Z,17.47
2017-09-27T12:06:01.153Z,18.15
2017-09-27T12:15:38.291Z,17.37
2017-09-27T12:25:18.884Z,17.27
2017-09-27T12:34:48.921Z,16.88
2017-09-27T12:44:25.573Z,16.79
2017-09-27T12:54:02.540Z,16.69
2017-09-27T13:03:39.800Z,16.78
2017-09-27T13:13:17.703Z,16.69
2017-09-27T13:22:54.498Z,16.59
2017-09-27T13:32:31.505Z,16.59
2017-09-27T13:42:08.202Z,16.40
2017-09-27T13:51:44.986Z,16.20
2017-09-27T14:01:22.132Z,16.20
2017-09-27T14:10:58.951Z,16.10
2017-09-27T14:20:36.756Z,16.20
2017-09-27T14:30:17.697Z,16.10
2017-09-27T14:39:52.507Z,15.91
2017-09-27T14:49:24.091Z,15.81
2017-09-27T14:59:01.265Z,15.81
2017-09-27T15:08:38.305Z,15.81
2017-09-27T15:18:15.039Z,15.51
2017-09-27T15:27:51.720Z,15.42
2017-09-27T15:37:32.077Z,15.22
2017-09-27T15:47:01.105Z,15.12
2017-09-27T15:56:47.778Z,14.93
2017-09-27T16:06:22.766Z,14.83
2017-09-27T16:15:57.627Z,14.73
2017-09-27T16:25:28.278Z,14.63
2017-09-27T16:35:05.167Z,14.54
2017-09-27T16:44:45.992Z,14.34
2017-09-27T16:54:18.361Z,14.24
2017-09-27T17:03:52.901Z,14.15
2017-09-27T17:13:29.316Z,13.95
2017-09-27T17:23:06.254Z,13.95
2017-09-27T17:32:43.036Z,13.75
2017-09-27T17:42:20.704Z,13.66
2017-09-27T17:51:57.369Z,13.46
2017-09-27T18:01:34.493Z,13.36
2017-09-27T18:11:11.307Z,13.26
2017-09-27T18:20:48.372Z,13.36
2017-09-27T18:30:29.202Z,13.26
2017-09-27T18:40:04.380Z,13.17
2017-09-27T18:49:35.288Z,13.17
2017-09-27T18:59:12.007Z,13.07
2017-09-27T19:08:49.322Z,12.97
2017-09-27T19:18:27.246Z,12.78
2017-09-27T19:28:03.911Z,12.78
2017-09-27T19:37:40.653Z,12.68
2017-09-27T19:47:22.549Z,12.78
2017-09-27T19:56:57.782Z,12.68
2017-09-27T20:06:29.009Z,12.58
2017-09-27T20:16:06.179Z,12.58
2017-09-27T20:25:42.916Z,12.48
2017-09-27T20:35:21.103Z,12.58
2017-09-27T20:44:58.431Z,12.48
2017-09-27T20:54:35.573Z,12.48
2017-09-27T21:04:12.755Z,12.58
2017-09-27T21:13:49.908Z,12.48
2017-09-27T21:23:26.908Z,12.48
2017-09-27T21:33:03.860Z,12.48
2017-09-27T21:42:41.782Z,12.48
2017-09-27T21:52:22.559Z,12.48
2017-09-27T22:01:54.328Z,12.48
2017-09-27T22:11:31.026Z,12.48
2017-09-27T22:21:09.379Z,12.48
2017-09-27T22:30:46.890Z,12.58
2017-09-27T22:40:24.164Z,12.58
2017-09-27T22:50:01.045Z,12.68
2017-09-27T22:59:39.549Z,12.68
2017-09-27T23:09:16.397Z,12.78
2017-09-27T23:18:54.319Z,12.78
2017-09-27T23:28:32.252Z,12.58
2017-09-27T23:38:09.142Z,12.48
2017-09-27T23:47:50.402Z,12.38
2017-09-27T23:57:21.649Z,12.29
